SNOW

Not for real navigation. The accuracy of this data is not assured See disclaimer for more information



ICAO NAME COUNTRY WIND Kt GUST Kt VIS m TEMP/DEW C BARO METAR
KSXT SEXTON SUMMIT OR United States 3 0 400 -4/-5 29.89 KSXT 170956Z AUTO VRB03KT 0.25SM +SN FZFG VV002 M04/M05 A2989 RMK AO2 SLP153 P0011 T10391050 $
KINW WINSLOW MUNICIPAL AIRPORT AZ United States 6 0 400 -1/-2 29.88 KINW 171013Z AUTO 26006KT 0.25SM +SN FZFG VV004 M01/M02 A2988 RMK AO2 P0004 T10061017 $
KMRJ Mineral Point, Iowa County Air WI United States 7 0 800 -5/-5 29.88 KMRJ 170955Z AUTO 06007KT 0.5SM SN OVC007 M05/M05 A2988 RMK AO2
KOVS BOSCOBEL AIRPORT WI United States 5 0 1200 -6/-9 29.93 KOVS 171003Z AUTO 06005KT 0.75SM -SN VV017 M06/M09 A2993 RMK AO2 P0000 T10611089
K65S 7 0 1200 -4/-5 29.88 K65S 170955Z AUTO 35007KT 0.75SM -SN OVC002 M04/M05 A2988 RMK AO2

Show more